Flight Track Log - Related Links

Times and Time Zones

All times are in EDT time to prevent confusion due to time zone crossing. See the UAL33 flight status page for this flight to view local times or setup timezone preferences in your user account.


Time Position Orientation Groundspeed Altitude Reporting Facility
EDT Latitude Longitude Course Direction KTS MPH feet Rate Location/Type
Thu 05:20:53 AM 35.7380 140.3940 148° Southeast 171 197 1,400  Level FlightAware ADS-B
Thu 05:21:13 AM 35.7240 140.4050 147° Southeast 173 199 2,200 2,250 Climbing FlightAware ADS-B
Thu 05:21:25 AM 35.7160 140.4110 149° Southeast 174 200 2,600 1,895 Climbing FlightAware ADS-B
Thu 05:21:51 AM 35.6970 140.4240 151° Southeast 182 209 3,400 1,435 Climbing FlightAware ADS-B
Thu 05:22:11 AM 35.6820 140.4350 149° Southeast 211 243 3,700 900 Climbing FlightAware ADS-B
Thu 05:22:31 AM 35.6630 140.4490 149° Southeast 240 276 4,000 1,050 Climbing FlightAware ADS-B
Thu 05:22:51 AM 35.6430 140.4630 150° Southeast 266 306 4,400 1,800 Climbing FlightAware ADS-B
Thu 05:23:11 AM 35.6200 140.4790 151° Southeast 276 318 5,200 2,571 Climbing FlightAware ADS-B
Thu 05:23:33 AM 35.5960 140.4970 149° Southeast 280 322 6,200 2,571 Climbing FlightAware ADS-B
Thu 05:23:53 AM 35.5740 140.5130 149° Southeast 284 327 7,000 2,438 Climbing FlightAware ADS-B
Thu 05:24:05 AM 35.5610 140.5240 145° Southeast 289 333 7,500 2,100 Climbing FlightAware ADS-B
Thu 05:24:13 AM 35.5540 140.5330 134° Southeast 295 339 7,700 2,000 Climbing FlightAware ADS-B
Thu 05:24:23 AM 35.5470 140.5490 118° Southeast 300 345 8,100 2,333 Climbing FlightAware ADS-B
Thu 05:24:31 AM 35.5450 140.5620 101° East 302 348 8,400 1,929 Climbing FlightAware ADS-B
Thu 05:24:51 AM 35.5410 140.5980 98° East 309 356 9,000 1,050 Climbing FlightAware ADS-B
Thu 05:25:11 AM 35.5380 140.6320 96° East 312 359 9,100 150 Climbing FlightAware ADS-B
Thu 05:25:31 AM 35.5350 140.6680 96° East 312 359 9,100  Level FlightAware ADS-B
Thu 05:25:51 AM 35.5320 140.7030 96° East 312 359 9,100  Level FlightAware ADS-B
Thu 05:26:16 AM 35.5280 140.7430 97° East 312 359 9,100  Level FlightAware ADS-B
Thu 05:26:35 AM 35.5240 140.7780 98° East 313 360 9,100 343 Level FlightAware ADS-B
Thu 05:26:51 AM 35.5210 140.8090 97° East 315 362 9,300 1,714 Climbing FlightAware ADS-B
Thu 05:27:24 AM 35.5150 140.8640 98° East 323 372 10,500 1,662 Climbing FlightAware ADS-B
Thu 05:27:56 AM 35.5090 140.9310 96° East 361 415 11,100 1,478 Climbing FlightAware ADS-B
Thu 05:28:33 AM 35.5020 141.0010 97° East 378 435 12,200 1,750 Climbing FlightAware ADS-B
Thu 05:29:08 AM 35.4940 141.0750 98° East 395 455 13,200 1,543 Climbing FlightAware ADS-B
Thu 05:29:43 AM 35.4750 141.1530 107° East 402 463 14,000 1,571 Climbing FlightAware ADS-B
Thu 05:30:32 AM 35.4400 141.2680 110° East 436 502 15,400 1,446 Climbing FlightAware ADS-B
Thu 05:31:06 AM 35.4160 141.3460 111° Southeast 462 532 16,000 1,371 Climbing FlightAware ADS-B
Thu 05:31:42 AM 35.3890 141.4360 110° East 469 540 17,000 1,606 Climbing FlightAware ADS-B
Thu 05:32:17 AM 35.3600 141.5290 111° Southeast 480 552 17,900 1,629 Climbing FlightAware ADS-B
Thu 05:32:52 AM 35.3330 141.6160 111° Southeast 486 559 18,900 1,714 Climbing FlightAware ADS-B
Thu 05:33:27 AM 35.3050 141.7060 111° Southeast 491 565 19,900 1,543 Climbing FlightAware ADS-B
Thu 05:34:02 AM 35.2790 141.8000 109° East 501 577 20,700 1,412 Climbing FlightAware ADS-B
Thu 05:34:18 AM 35.2720 141.8460 101° East 501 577 21,100 1,440 Climbing FlightAware ADS-B
Thu 05:34:52 AM 35.2800 141.9430 84° East 501 577 21,900 1,297 Climbing FlightAware ADS-B
Thu 05:35:32 AM 35.3150 142.0330 64° Northeast 499 574 22,700 1,171 Climbing FlightAware ADS-B
Thu 05:36:14 AM 35.3710 142.1330 56° Northeast 508 585 23,500 1,214 Climbing FlightAware ADS-B
Thu 05:36:56 AM 35.4300 142.2390 56° Northeast 512 589 24,400 1,247 Climbing FlightAware ADS-B
Thu 05:37:31 AM 35.4730 142.3150 55° Northeast 517 595 25,100 1,268 Climbing FlightAware ADS-B
Thu 05:38:07 AM 35.5170 142.4170 62° Northeast 526 605 25,900 1,304 Climbing FlightAware ADS-B
Thu 05:38:40 AM 35.5410 142.5150 73° East 530 610 26,600 1,098 Climbing FlightAware ADS-B
Thu 05:39:29 AM 35.5690 142.6430 75° East 536 617 27,400 1,000 Climbing FlightAware ADS-B
Thu 05:40:04 AM 35.5930 142.7570 75° East 540 621 28,000 1,457 Climbing FlightAware ADS-B
Thu 05:40:39 AM 35.6160 142.8630 75° East 535 616 29,100 1,606 Climbing FlightAware ADS-B
Thu 05:41:15 AM 35.6370 142.9620 75° East 529 609 29,900 868 Climbing FlightAware ADS-B
Thu 05:41:55 AM 35.6610 143.0710 75° East 529 609 30,200 1,421 Climbing FlightAware ADS-B
Thu 05:42:31 AM 35.6850 143.1880 76° East 523 602 31,700 1,890 Climbing FlightAware ADS-B
Thu 05:43:08 AM 35.7090 143.3000 75° East 522 601 32,500 951 Climbing FlightAware ADS-B
Thu 05:43:53 AM 35.7340 143.4200 76° East 523 602 33,000 375 Climbing FlightAware ADS-B
Thu 05:44:28 AM 35.7560 143.5250 75° East 528 608 33,000  Level FlightAware ADS-B
Thu 05:45:03 AM 35.7780 143.6300 75° East 527 606 33,000  Level FlightAware ADS-B
Thu 05:45:38 AM 35.7990 143.7330 76° East 527 606 33,000  Level FlightAware ADS-B
Thu 05:46:25 AM 35.8260 143.8650 76° East 528 608 33,000  Level FlightAware ADS-B
Thu 05:46:58 AM 35.8470 143.9680 76° East 529 609 33,000  Level FlightAware ADS-B
Thu 05:47:33 AM 35.8670 144.0640 76° East 530 610 33,000  Level FlightAware ADS-B
Thu 05:48:13 AM 35.8920 144.1870 76° East 530 610 33,000  Level FlightAware ADS-B
Thu 05:48:46 AM 35.9070 144.2650 77° East 530 610 33,000  Level FlightAware ADS-B
Thu 05:49:20 AM 35.9250 144.3500 75° East 530 610 33,000  Level FlightAware ADS-B
Thu 05:49:56 AM 35.9430 144.4400 76° East 530 610 33,000  Level FlightAware ADS-B
Thu 05:50:32 AM 35.9610 144.5300 76° East 530 610 33,000  Level FlightAware ADS-B
Thu 05:51:03 AM 35.9910 144.6830 76° East 523 602 33,000  Level FlightAware ADS-B
Thu 05:51:38 AM 36.0110 144.7840 76° East 525 604 33,000  Level FlightAware ADS-B
Thu 05:52:16 AM 36.0300 144.8850 77° East 526 605 33,000  Level FlightAware ADS-B
Thu 05:52:52 AM 36.0460 144.9750 78° East 526 605 33,000  Level FlightAware ADS-B
Thu 05:53:28 AM 36.0630 145.0650 77° East 526 605 33,000  Level FlightAware ADS-B
Thu 05:54:04 AM 36.0800 145.1540 77° East 526 605 33,000  Level FlightAware ADS-B
Thu 05:54:40 AM 36.0970 145.2440 77° East 526 605 33,000  Level FlightAware ADS-B
Thu 05:55:17 AM 36.1140 145.3360 77° East 526 605 33,000  Level FlightAware ADS-B
Thu 05:55:53 AM 36.1310 145.4260 77° East 526 605 33,000  Level FlightAware ADS-B
Thu 05:56:30 AM 36.1480 145.5190 77° East 526 605 33,000  Level FlightAware ADS-B
Thu 05:57:06 AM 36.1640 145.6090 78° East 526 605 33,000 33 Level FlightAware ADS-B
Thu 05:57:33 AM 36.2860 145.7780 48° Northeast 33,000 33 Level FlightAware ADS-B
Thu 06:00:00 AM 36.5319 146.0762 44° Northeast  Level FlightAware Approximate
Thu 06:01:00 AM 36.6320 146.1984 44° Northeast  Level FlightAware Approximate
Thu 06:02:00 AM 36.7202 146.3369 52° Northeast  Level FlightAware Approximate
Thu 06:03:00 AM 36.8070 146.4744 52° Northeast  Level FlightAware Approximate
Thu 06:04:00 AM 36.8937 146.6122 52° Northeast  Level FlightAware Approximate
Thu 06:05:00 AM 36.9802 146.7502 52° Northeast  Level FlightAware Approximate
Thu 06:06:00 AM 37.0665 146.8887 52° Northeast  Level FlightAware Approximate
Thu 06:07:00 AM 37.1527 147.0274 52° Northeast  Level FlightAware Approximate
Thu 06:08:00 AM 37.2388 147.1664 52° Northeast  Level FlightAware Approximate
Thu 06:09:00 AM 37.3246 147.3057 52° Northeast  Level FlightAware Approximate
Thu 06:10:00 AM 37.4103 147.4454 52° Northeast  Level FlightAware Approximate
Thu 06:11:00 AM 37.4959 147.5854 52° Northeast  Level FlightAware Approximate
Thu 06:12:00 AM 37.5813 147.7257 52° Northeast  Level FlightAware Approximate
Thu 06:13:00 AM 37.6665 147.8663 53° Northeast  Level FlightAware Approximate
Thu 06:14:00 AM 37.7174 148.0314 69° East  Level FlightAware Approximate
Thu 06:15:00 AM 37.7680 148.1968 69° East  Level FlightAware Approximate
Thu 06:16:00 AM 37.8184 148.3624 69° East  Level FlightAware Approximate
Thu 06:17:00 AM 37.8685 148.5283 69° East  Level FlightAware Approximate
Thu 06:18:00 AM 37.9185 148.6943 69° East  Level FlightAware Approximate
Thu 06:19:00 AM 37.9682 148.8606 69° East  Level FlightAware Approximate
Thu 06:20:00 AM 38.0176 149.0271 69° East  Level FlightAware Approximate
Thu 06:21:00 AM 38.0668 149.1939 69° East  Level FlightAware Approximate
Thu 06:22:00 AM 38.0863 149.3682 88° East  Level FlightAware Approximate
Thu 06:23:00 AM 38.0905 149.5463 88° East  Level FlightAware Approximate
Thu 06:24:00 AM 38.0944 149.7244 88° East  Level FlightAware Approximate
Thu 06:25:00 AM 38.0981 149.9026 88° East  Level FlightAware Approximate
Thu 06:26:00 AM 38.1373 150.0653 54° Northeast  Level FlightAware Approximate
Thu 06:27:00 AM 38.2196 150.2098 54° Northeast  Level FlightAware Approximate
Thu 06:28:00 AM 38.3017 150.3546 54° Northeast  Level FlightAware Approximate
Thu 06:29:00 AM 38.3836 150.4998 54° Northeast  Level FlightAware Approximate
Thu 06:30:00 AM 38.4653 150.6452 54° Northeast  Level FlightAware Approximate
Thu 06:31:00 AM 38.5469 150.7910 54° Northeast  Level FlightAware Approximate
Thu 06:32:00 AM 38.6282 150.9371 54° Northeast  Level FlightAware Approximate
Thu 06:33:00 AM 38.7094 151.0836 55° Northeast  Level FlightAware Approximate
Thu 06:34:00 AM 38.7904 151.2304 55° Northeast  Level FlightAware Approximate
Thu 06:35:00 AM 38.8712 151.3775 55° Northeast  Level FlightAware Approximate
Thu 06:36:00 AM 38.9519 151.5250 55° Northeast  Level FlightAware Approximate
Thu 06:37:00 AM 39.0323 151.6728 55° Northeast  Level FlightAware Approximate
Thu 06:38:00 AM 39.1126 151.8209 55° Northeast  Level FlightAware Approximate
Thu 06:39:00 AM 39.1926 151.9694 55° Northeast  Level FlightAware Approximate
Thu 06:40:00 AM 39.2725 152.1182 55° Northeast  Level FlightAware Approximate
Thu 06:41:00 AM 39.3522 152.2673 55° Northeast  Level FlightAware Approximate
Thu 06:42:00 AM 39.4317 152.4168 55° Northeast  Level FlightAware Approximate
Thu 06:43:00 AM 39.5110 152.5666 56° Northeast  Level FlightAware Approximate
Thu 06:44:00 AM 39.5901 152.7168 56° Northeast  Level FlightAware Approximate
Thu 06:45:00 AM 39.6691 152.8673 56° Northeast  Level FlightAware Approximate
Thu 06:46:00 AM 39.7478 153.0181 56° Northeast  Level FlightAware Approximate
Thu 06:47:00 AM 39.8263 153.1693 56° Northeast  Level FlightAware Approximate
Thu 06:48:00 AM 39.9047 153.3209 56° Northeast  Level FlightAware Approximate
Thu 06:49:00 AM 39.9828 153.4728 56° Northeast  Level FlightAware Approximate
Thu 06:50:00 AM 40.0607 153.6250 56° Northeast  Level FlightAware Approximate
Thu 06:51:00 AM 40.1385 153.7776 56° Northeast  Level FlightAware Approximate
Thu 06:52:00 AM 40.2160 153.9305 56° Northeast  Level FlightAware Approximate
Thu 06:53:00 AM 40.2934 154.0838 56° Northeast  Level FlightAware Approximate
Thu 06:54:00 AM 40.3705 154.2375 57° Northeast  Level FlightAware Approximate
Thu 06:55:00 AM 40.4474 154.3915 57° Northeast  Level FlightAware Approximate
Thu 06:56:00 AM 40.5242 154.5458 57° Northeast  Level FlightAware Approximate
Thu 06:57:00 AM 40.6007 154.7005 57° Northeast  Level FlightAware Approximate
Thu 06:58:00 AM 40.6770 154.8555 57° Northeast  Level FlightAware Approximate
Thu 06:59:00 AM 40.7531 155.0109 57° Northeast  Level FlightAware Approximate
Thu 07:00:00 AM 40.8290 155.1667 57° Northeast  Level FlightAware Approximate
Thu 07:01:00 AM 40.9047 155.3228 57° Northeast  Level FlightAware Approximate
Thu 07:02:00 AM 40.9802 155.4793 57° Northeast  Level FlightAware Approximate
Thu 07:03:00 AM 41.0554 155.6361 57° Northeast  Level FlightAware Approximate
Thu 07:04:00 AM 41.1305 155.7933 58° Northeast  Level FlightAware Approximate
Thu 07:05:00 AM 41.2053 155.9509 58° Northeast  Level FlightAware Approximate
Thu 07:06:00 AM 41.2799 156.1088 58° Northeast  Level FlightAware Approximate
Thu 07:07:00 AM 41.3543 156.2670 58° Northeast  Level FlightAware Approximate
Thu 07:08:00 AM 41.4285 156.4257 58° Northeast  Level FlightAware Approximate
Thu 07:09:00 AM 41.5025 156.5847 58° Northeast  Level FlightAware Approximate
Thu 07:10:00 AM 41.5762 156.7440 58° Northeast  Level FlightAware Approximate
Thu 07:11:00 AM 41.6498 156.9037 58° Northeast  Level FlightAware Approximate
Thu 07:12:00 AM 41.7231 157.0638 58° Northeast  Level FlightAware Approximate
Thu 07:13:00 AM 41.7962 157.2243 59° Northeast  Level FlightAware Approximate
Thu 07:14:00 AM 41.8690 157.3851 59° Northeast  Level FlightAware Approximate
Thu 07:15:00 AM 41.9417 157.5463 59° Northeast  Level FlightAware Approximate
Thu 07:16:00 AM 42.0141 157.7078 59° Northeast  Level FlightAware Approximate
Thu 07:17:00 AM 42.0863 157.8697 59° Northeast  Level FlightAware Approximate
Thu 07:18:00 AM 42.1582 158.0320 59° Northeast  Level FlightAware Approximate
Thu 07:19:00 AM 42.2299 158.1947 59° Northeast  Level FlightAware Approximate
Thu 07:20:00 AM 42.3014 158.3577 59° Northeast  Level FlightAware Approximate
Thu 07:21:00 AM 42.3727 158.5211 59° Northeast  Level FlightAware Approximate
Thu 07:22:00 AM 42.4437 158.6849 60° Northeast  Level FlightAware Approximate
Thu 07:23:00 AM 42.5145 158.8490 60° Northeast  Level FlightAware Approximate
Thu 07:24:00 AM 42.5851 159.0135 60° Northeast  Level FlightAware Approximate
Thu 07:25:00 AM 42.6554 159.1784 60° Northeast  Level FlightAware Approximate
Thu 07:26:00 AM 42.7254 159.3434 60° Northeast  Level FlightAware Approximate
Thu 07:27:00 AM 42.7951 159.5087 60° Northeast  Level FlightAware Approximate
Thu 07:28:00 AM 42.8646 159.6744 60° Northeast  Level FlightAware Approximate
Thu 07:29:00 AM 42.9338 159.8405 60° Northeast  Level FlightAware Approximate
Thu 07:30:00 AM 43.0031 160.0067 57° Northeast  Level FlightAware Approximate
Thu 07:31:00 AM 43.0788 160.1678 57° Northeast  Level FlightAware Approximate
Thu 07:32:00 AM 43.1542 160.3294 57° Northeast  Level FlightAware Approximate
Thu 07:33:00 AM 43.2294 160.4914 57° Northeast  Level FlightAware Approximate
Thu 07:34:00 AM 43.3044 160.6537 58° Northeast  Level FlightAware Approximate
Thu 07:35:00 AM 43.3792 160.8165 58° Northeast  Level FlightAware Approximate
Thu 07:36:00 AM 43.4537 160.9796 58° Northeast  Level FlightAware Approximate
Thu 07:37:00 AM 43.5280 161.1432 58° Northeast  Level FlightAware Approximate
Thu 07:38:00 AM 43.6020 161.3071 58° Northeast  Level FlightAware Approximate
Thu 07:39:00 AM 43.6758 161.4715 58° Northeast  Level FlightAware Approximate
Thu 07:40:00 AM 43.7494 161.6363 58° Northeast  Level FlightAware Approximate
Thu 07:41:00 AM 43.8228 161.8015 58° Northeast  Level FlightAware Approximate
Thu 07:42:00 AM 43.8959 161.9670 58° Northeast  Level FlightAware Approximate
Thu 07:43:00 AM 43.9687 162.1330 59° Northeast  Level FlightAware Approximate
Thu 07:44:00 AM 44.0413 162.2994 59° Northeast  Level FlightAware Approximate
Thu 07:45:00 AM 44.1137 162.4662 59° Northeast  Level FlightAware Approximate
Thu 07:46:00 AM 44.1858 162.6334 59° Northeast  Level FlightAware Approximate
Thu 07:47:00 AM 44.2577 162.8010 59° Northeast  Level FlightAware Approximate
Thu 07:48:00 AM 44.3294 162.9691 59° Northeast  Level FlightAware Approximate
Thu 07:49:00 AM 44.4008 163.1375 59° Northeast  Level FlightAware Approximate
Thu 07:50:00 AM 44.4719 163.3064 59° Northeast  Level FlightAware Approximate
Thu 07:51:00 AM 44.5429 163.4756 60° Northeast  Level FlightAware Approximate
Thu 07:52:00 AM 44.6135 163.6453 60° Northeast  Level FlightAware Approximate
Thu 07:53:00 AM 44.6842 163.8151 59° Northeast  Level FlightAware Approximate
Thu 07:54:00 AM 44.7550 163.9850 60° Northeast  Level FlightAware Approximate
Thu 07:55:00 AM 44.8256 164.1554 60° Northeast  Level FlightAware Approximate
Thu 07:56:00 AM 44.8959 164.3262 60° Northeast  Level FlightAware Approximate
Thu 07:57:00 AM 44.9660 164.4974 60° Northeast  Level FlightAware Approximate
Thu 07:58:00 AM 45.0358 164.6690 60° Northeast  Level FlightAware Approximate
Thu 07:58:22 AM 45.6333 166.1500 61° Northeast 546 628 37,000  Level Oakland Oceanic (ODAPS)
Thu 07:59:00 AM 45.1054 164.8410 60° Northeast  Level FlightAware Approximate
Thu 08:00:00 AM 45.1746 165.0134 60° Northeast  Level FlightAware Approximate
Thu 08:01:00 AM 45.2437 165.1863 60° Northeast  Level FlightAware Approximate
Thu 08:02:00 AM 45.3124 165.3596 61° Northeast  Level FlightAware Approximate
Thu 08:03:00 AM 45.3810 165.5333 61° Northeast  Level FlightAware Approximate
Thu 08:04:00 AM 46.0568 167.2848 62° Northeast 546 628 37,000  Level FlightAware Transoceanic
Thu 08:05:00 AM 46.1263 167.4756 62° Northeast 546 628 37,000  Level FlightAware Transoceanic
Thu 08:06:00 AM 46.1955 167.6669 63° Northeast 546 628 37,000  Level FlightAware Transoceanic
Thu 08:07:00 AM 46.2643 167.8587 63° Northeast 546 628 37,000  Level FlightAware Transoceanic
Thu 08:08:00 AM 46.3328 168.0509 63° Northeast 546 628 37,000  Level FlightAware Transoceanic
Thu 08:09:00 AM 46.4010 168.2437 63° Northeast 546 628 37,000  Level FlightAware Transoceanic
Thu 08:10:00 AM 46.4689 168.4369 63° Northeast 546 628 37,000  Level FlightAware Transoceanic
Thu 08:11:00 AM 46.5364 168.6306 63° Northeast 546 628 37,000  Level FlightAware Transoceanic
Thu 08:12:00 AM 46.6037 168.8248 63° Northeast 546 628 37,000 1,579 Level FlightAware Transoceanic
Thu 08:12:16 AM 46.5833 168.7833 63° Northeast 523 602 39,000  Climbing Oakland Oceanic (ODAPS)
Thu 08:13:00 AM 46.6706 169.0195 63° Northeast 546 628 37,000 -1,154 Descending FlightAware Transoceanic
Thu 08:14:00 AM 46.7371 169.2146 64° Northeast 546 628 37,000  Level FlightAware Transoceanic
Thu 08:15:00 AM 46.8033 169.4102 64° Northeast 546 628 37,000  Level FlightAware Transoceanic
Thu 08:16:00 AM 46.8692 169.6063 64° Northeast 546 628 37,000  Level FlightAware Transoceanic
Thu 08:17:00 AM 46.9348 169.8029 64° Northeast 546 628 37,000 1,000 Level FlightAware Transoceanic
Thu 08:18:00 AM 47.0000 170.0000 70° East 523 602 39,000 1,176 Climbing FlightAware Transoceanic
Thu 08:18:42 AM 47.0000 170.0000 70° East 519 597 39,000  Level Oakland Oceanic (ODAPS)
Thu 08:19:00 AM 47.0483 170.1921 70° East 523 602 39,000  Level FlightAware Transoceanic
Thu 08:20:00 AM 47.0963 170.3845 70° East 523 602 39,000  Level FlightAware Transoceanic
Thu 08:21:00 AM 47.1440 170.5772 70° East 523 602 39,000  Level FlightAware Transoceanic
Thu 08:22:00 AM 47.1913 170.7703 70° East 523 602 39,000  Level FlightAware Transoceanic
Thu 08:23:00 AM 47.2383 170.9638 70° East 523 602 39,000  Level FlightAware Transoceanic
Thu 08:24:00 AM 47.2481 171.0041 70° East 519 597 39,000  Level FlightAware Transoceanic
Thu 08:25:00 AM 47.2966 171.2061 71° East 519 597 39,000  Level FlightAware Transoceanic
Thu 08:26:00 AM 47.3448 171.4084 71° East 519 597 39,000  Level FlightAware Transoceanic
Thu 08:26:07 AM 47.3667 171.4833 71° East 515 593 39,000  Level Oakland Oceanic (ODAPS)
Thu 08:27:00 AM 47.3926 171.6111 71° East 519 597 39,000  Level FlightAware Transoceanic
Thu 08:28:00 AM 47.4401 171.8141 71° East 519 597 39,000  Level FlightAware Transoceanic
Thu 08:29:00 AM 47.4872 172.0175 71° East 519 597 39,000  Level FlightAware Transoceanic
Thu 08:30:00 AM 47.5340 172.2213 71° East 519 597 39,000  Level FlightAware Transoceanic
Thu 08:31:00 AM 47.5804 172.4255 71° East 519 597 39,000  Level FlightAware Transoceanic
Thu 08:32:00 AM 47.6444 172.6947 72° East 515 593 39,000  Level FlightAware Transoceanic
Thu 08:33:00 AM 47.6895 172.8978 72° East 515 593 39,000  Level FlightAware Transoceanic
Thu 08:34:00 AM 47.7342 173.1013 72° East 515 593 39,000  Level FlightAware Transoceanic
Thu 08:35:00 AM 47.7785 173.3052 72° East 515 593 39,000  Level FlightAware Transoceanic
Thu 08:36:00 AM 47.8225 173.5093 72° East 515 593 39,000  Level FlightAware Transoceanic
Thu 08:37:00 AM 47.8661 173.7139 72° East 515 593 39,000  Level FlightAware Transoceanic
Thu 08:38:00 AM 47.9093 173.9187 73° East 515 593 39,000  Level FlightAware Transoceanic
Thu 08:39:00 AM 47.9522 174.1239 73° East 515 593 39,000  Level FlightAware Transoceanic
Thu 08:39:58 AM 47.9667 174.2333 73° East 511 588 39,000  Level Oakland Oceanic (ODAPS)
Thu 08:40:00 AM 47.9947 174.3295 73° East 515 593 39,000  Level FlightAware Transoceanic
Thu 08:41:00 AM 48.0368 174.5354 73° East 515 593 39,000  Level FlightAware Transoceanic
Thu 08:42:00 AM 48.0786 174.7416 73° East 515 593 39,000  Level FlightAware Transoceanic
Thu 08:43:00 AM 48.1200 174.9482 73° East 515 593 39,000  Level FlightAware Transoceanic
Thu 08:44:00 AM 48.1610 175.1550 74° East 515 593 39,000  Level FlightAware Transoceanic
Thu 08:45:00 AM 48.2017 175.3622 74° East 515 593 39,000  Level FlightAware Transoceanic
Thu 08:46:00 AM 48.2122 175.4489 74° East 511 588 39,000  Level FlightAware Transoceanic
Thu 08:47:00 AM 48.2518 175.6526 74° East 511 588 39,000  Level FlightAware Transoceanic
Thu 08:48:00 AM 48.2911 175.8566 74° East 511 588 39,000  Level FlightAware Transoceanic
Thu 08:49:00 AM 48.3301 176.0610 74° East 511 588 39,000  Level FlightAware Transoceanic
Thu 08:50:00 AM 48.3687 176.2656 74° East 511 588 39,000  Level FlightAware Transoceanic
Thu 08:51:00 AM 48.4069 176.4706 74° East 511 588 39,000  Level FlightAware Transoceanic
Thu 08:52:00 AM 48.4447 176.6758 75° East 511 588 39,000  Level FlightAware Transoceanic
Thu 08:53:00 AM 48.4822 176.8814 75° East 511 588 39,000  Level FlightAware Transoceanic
Thu 08:54:00 AM 48.5193 177.0873 75° East 511 588 39,000  Level FlightAware Transoceanic
Thu 08:54:41 AM 48.5167 177.0167 75° East 505 581 39,000  Level Oakland Oceanic (ODAPS)
Thu 08:55:00 AM 48.5561 177.2934 75° East 511 588 39,000  Level FlightAware Transoceanic
Thu 08:56:00 AM 48.5925 177.4999 75° East 511 588 39,000  Level FlightAware Transoceanic
Thu 08:57:00 AM 48.6285 177.7067 75° East 511 588 39,000  Level FlightAware Transoceanic
Thu 08:58:00 AM 48.6642 177.9137 75° East 511 588 39,000  Level FlightAware Transoceanic
Thu 08:59:00 AM 48.6994 178.1211 76° East 511 588 39,000  Level FlightAware Transoceanic
Thu 09:00:00 AM 48.7343 178.3287 76° East 511 588 39,000  Level FlightAware Transoceanic
Thu 09:01:00 AM 48.7680 178.5012 76° East 505 581 39,000  Level FlightAware Transoceanic
Thu 09:02:00 AM 48.8023 178.7144 76° East 505 581 39,000  Level FlightAware Transoceanic
Thu 09:03:00 AM 48.8362 178.9280 77° East 505 581 39,000  Level FlightAware Transoceanic
Thu 09:04:00 AM 48.8698 179.1418 77° East 505 581 39,000  Level FlightAware Transoceanic
Thu 09:05:00 AM 48.9029 179.3559 77° East 505 581 39,000  Level FlightAware Transoceanic
Thu 09:06:00 AM 48.9357 179.5703 77° East 505 581 39,000  Level FlightAware Transoceanic
Thu 09:07:00 AM 48.9680 179.7850 77° East 505 581 39,000  Level FlightAware Transoceanic
Thu 09:07:42 AM 48.9833 179.8333 81° East 508 585 39,000  Level Oakland Oceanic (ODAPS)
Thu 09:08:00 AM 49.0000 -180.0000 77° East 505 581 39,000  Level FlightAware Transoceanic
Thu 09:08:31 AM 49.0000 180.0000 77° East 508 585 39,000  Level Oakland Oceanic (ODAPS)
Thu 09:09:00 AM 49.0295 -179.7964 78° East 505 581 39,000  Level FlightAware Transoceanic
Thu 09:10:00 AM 49.0587 -179.5925 78° East 505 581 39,000  Level FlightAware Transoceanic
Thu 09:11:00 AM 49.0875 -179.3883 78° East 505 581 39,000  Level FlightAware Transoceanic
Thu 09:12:00 AM 49.1159 -179.1840 78° East 505 581 39,000  Level FlightAware Transoceanic
Thu 09:13:00 AM 49.1440 -178.9794 78° East 505 581 39,000  Level FlightAware Transoceanic
Thu 09:14:00 AM 49.1752 -178.7484 78° East 508 585 39,000  Level FlightAware Transoceanic
Thu 09:15:00 AM 49.2031 -178.5389 79° East 508 585 39,000  Level FlightAware Transoceanic
Thu 09:16:00 AM 49.2306 -178.3292 79° East 508 585 39,000  Level FlightAware Transoceanic
Thu 09:17:00 AM 49.2577 -178.1193 79° East 508 585 39,000  Level FlightAware Transoceanic
Thu 09:18:00 AM 49.2845 -177.9092 79° East 508 585 39,000  Level FlightAware Transoceanic
Thu 09:19:00 AM 49.3108 -177.6988 79° East 508 585 39,000  Level FlightAware Transoceanic
Thu 09:20:00 AM 49.3368 -177.4882 79° East 508 585 39,000  Level FlightAware Transoceanic
Thu 09:21:00 AM 49.3624 -177.2774 80° East 508 585 39,000  Level FlightAware Transoceanic
Thu 09:22:00 AM 49.3876 -177.0664 80° East 508 585 39,000  Level FlightAware Transoceanic
Thu 09:22:03 AM 49.3667 -177.2833 80° East 506 582 39,000  Level Oakland Oceanic (ODAPS)
Thu 09:23:00 AM 49.4124 -176.8551 80° East 508 585 39,000  Level FlightAware Transoceanic
Thu 09:24:00 AM 49.4369 -176.6436 80° East 508 585 39,000  Level FlightAware Transoceanic
Thu 09:25:00 AM 49.4609 -176.4320 80° East 508 585 39,000  Level FlightAware Transoceanic
Thu 09:26:00 AM 49.4846 -176.2201 80° East 508 585 39,000  Level FlightAware Transoceanic
Thu 09:27:00 AM 49.5079 -176.0080 80° East 508 585 39,000  Level FlightAware Transoceanic
Thu 09:28:00 AM 49.5342 -175.8004 81° East 506 582 39,000  Level FlightAware Transoceanic
Thu 09:29:00 AM 49.5566 -175.5877 81° East 506 582 39,000  Level FlightAware Transoceanic
Thu 09:30:00 AM 49.5786 -175.3748 81° East 506 582 39,000  Level FlightAware Transoceanic
Thu 09:31:00 AM 49.6002 -175.1618 81° East 506 582 39,000  Level FlightAware Transoceanic
Thu 09:32:00 AM 49.6214 -174.9486 81° East 506 582 39,000  Level FlightAware Transoceanic
Thu 09:33:00 AM 49.6423 -174.7352 82° East 506 582 39,000  Level FlightAware Transoceanic
Thu 09:34:00 AM 49.6627 -174.5215 82° East 506 582 39,000  Level FlightAware Transoceanic
Thu 09:35:00 AM 49.6827 -174.3078 82° East 506 582 39,000  Level FlightAware Transoceanic
Thu 09:35:22 AM 49.6833 -174.3500 82° East 501 577 39,000  Level Oakland Oceanic (ODAPS)
Thu 09:36:00 AM 49.7024 -174.0938 82° East 506 582 39,000  Level FlightAware Transoceanic
Thu 09:37:00 AM 49.7216 -173.8797 82° East 506 582 39,000  Level FlightAware Transoceanic
Thu 09:38:00 AM 49.7405 -173.6654 82° East 506 582 39,000  Level FlightAware Transoceanic
Thu 09:39:00 AM 49.7589 -173.4510 82° East 506 582 39,000  Level FlightAware Transoceanic
Thu 09:40:00 AM 49.7770 -173.2363 83° East 506 582 39,000  Level FlightAware Transoceanic
Thu 09:41:00 AM 49.7904 -173.1132 83° East 501 577 39,000  Level FlightAware Transoceanic
Thu 09:42:00 AM 49.8069 -172.9065 83° East 501 577 39,000  Level FlightAware Transoceanic
Thu 09:43:00 AM 49.8232 -172.6997 83° East 501 577 39,000  Level FlightAware Transoceanic
Thu 09:44:00 AM 49.8390 -172.4928 83° East 501 577 39,000  Level FlightAware Transoceanic
Thu 09:45:00 AM 49.8544 -172.2857 83° East 501 577 39,000  Level FlightAware Transoceanic
Thu 09:46:00 AM 49.8695 -172.0785 84° East 501 577 39,000  Level FlightAware Transoceanic
Thu 09:47:00 AM 49.8842 -171.8712 84° East 501 577 39,000  Level FlightAware Transoceanic
Thu 09:48:00 AM 49.8986 -171.6637 84° East 501 577 39,000  Level FlightAware Transoceanic
Thu 09:49:00 AM 49.9126 -171.4562 84° East 501 577 39,000  Level FlightAware Transoceanic
Thu 09:49:25 AM 49.9167 -171.4000 84° East 497 572 39,000  Level Oakland Oceanic (ODAPS)
Thu 09:50:00 AM 49.9262 -171.2485 84° East 501 577 39,000  Level FlightAware Transoceanic
Thu 09:51:00 AM 49.9394 -171.0407 84° East 501 577 39,000  Level FlightAware Transoceanic
Thu 09:52:00 AM 49.9523 -170.8327 85° East 501 577 39,000  Level FlightAware Transoceanic
Thu 09:53:00 AM 49.9648 -170.6247 85° East 501 577 39,000  Level FlightAware Transoceanic
Thu 09:54:00 AM 49.9769 -170.4166 85° East 501 577 39,000  Level FlightAware Transoceanic
Thu 09:55:00 AM 49.9891 -170.2003 85° East 497 572 39,000  Level FlightAware Transoceanic
Thu 09:55:56 AM 50.0000 -170.0000 95° East 498 573 39,000  Level Oakland Oceanic (ODAPS)
Thu 09:56:00 AM 50.0000 -170.0000 95° East 497 572 39,000  Level FlightAware Transoceanic
Thu 09:57:00 AM 49.9881 -169.7880 95° East 497 572 39,000  Level FlightAware Transoceanic
Thu 09:58:00 AM 49.9757 -169.5762 95° East 497 572 39,000  Level FlightAware Transoceanic
Thu 09:59:00 AM 49.9630 -169.3644 95° East 497 572 39,000  Level FlightAware Transoceanic
Thu 10:00:00 AM 49.9499 -169.1528 96° East 497 572 39,000  Level FlightAware Transoceanic
Thu 10:01:00 AM 49.9365 -168.9413 96° East 497 572 39,000  Level FlightAware Transoceanic
Thu 10:02:00 AM 49.9208 -168.7029 96° East 498 573 39,000  Level FlightAware Transoceanic
Thu 10:03:00 AM 49.9062 -168.4871 96° East 498 573 39,000  Level FlightAware Transoceanic
Thu 10:03:11 AM 49.9000 -168.4500 96° East 497 572 39,000  Level Oakland Oceanic (ODAPS)
Thu 10:04:00 AM 49.8912 -168.2715 96° East 498 573 39,000  Level FlightAware Transoceanic
Thu 10:05:00 AM 49.8758 -168.0560 96° East 498 573 39,000  Level FlightAware Transoceanic
Thu 10:06:00 AM 49.8600 -167.8407 97° East 498 573 39,000  Level FlightAware Transoceanic
Thu 10:07:00 AM 49.8438 -167.6255 97° East 498 573 39,000  Level FlightAware Transoceanic
Thu 10:08:00 AM 49.8272 -167.4104 97° East 498 573 39,000  Level FlightAware Transoceanic
Thu 10:09:00 AM 49.8046 -167.1641 97° East 497 572 39,000  Level FlightAware Transoceanic
Thu 10:10:00 AM 49.7873 -166.9503 97° East 497 572 39,000  Level FlightAware Transoceanic
Thu 10:11:00 AM 49.7696 -166.7367 97° East 497 572 39,000  Level FlightAware Transoceanic
Thu 10:12:00 AM 49.7515 -166.5232 98° East 497 572 39,000  Level FlightAware Transoceanic
Thu 10:13:00 AM 49.7331 -166.3099 98° East 497 572 39,000  Level FlightAware Transoceanic
Thu 10:14:00 AM 49.7142 -166.0967 98° East 497 572 39,000  Level FlightAware Transoceanic
Thu 10:15:00 AM 49.6950 -165.8837 98° East 497 572 39,000  Level FlightAware Transoceanic
Thu 10:16:00 AM 49.6753 -165.6709 98° East 497 572 39,000  Level FlightAware Transoceanic
Thu 10:17:00 AM 49.6553 -165.4582 98° East 497 572 39,000  Level FlightAware Transoceanic
Thu 10:17:02 AM 49.6667 -165.5333 98° East 496 571 39,000  Level Oakland Oceanic (ODAPS)
Thu 10:18:00 AM 49.6349 -165.2458 99° East 497 572 39,000  Level FlightAware Transoceanic
Thu 10:19:00 AM 49.6141 -165.0335 99° East 497 572 39,000  Level FlightAware Transoceanic
Thu 10:20:00 AM 49.5929 -164.8214 99° East 497 572 39,000  Level FlightAware Transoceanic
Thu 10:21:00 AM 49.5713 -164.6094 99° East 497 572 39,000  Level FlightAware Transoceanic
Thu 10:22:00 AM 49.5494 -164.3977 99° East 497 572 39,000  Level FlightAware Transoceanic
Thu 10:23:00 AM 49.5415 -164.2912 99° East 496 571 39,000  Level FlightAware Transoceanic
Thu 10:24:00 AM 49.5193 -164.0848 99° East 496 571 39,000  Level FlightAware Transoceanic
Thu 10:25:00 AM 49.4968 -163.8786 100° East 496 571 39,000  Level FlightAware Transoceanic
Thu 10:26:00 AM 49.4739 -163.6725 100° East 496 571 39,000  Level FlightAware Transoceanic
Thu 10:27:00 AM 49.4506 -163.4667 100° East 496 571 39,000  Level FlightAware Transoceanic
Thu 10:28:00 AM 49.4270 -163.2611 100° East 496 571 39,000  Level FlightAware Transoceanic
Thu 10:29:00 AM 49.4030 -163.0557 100° East 496 571 39,000  Level FlightAware Transoceanic
Thu 10:30:00 AM 49.3787 -162.8504 100° East 496 571 39,000  Level FlightAware Transoceanic
Thu 10:30:55 AM 49.3500 -162.6500 100° East 492 566 39,000  Level Oakland Oceanic (ODAPS)
Thu 10:31:00 AM 49.3540 -162.6454 101° East 496 571 39,000  Level FlightAware Transoceanic
Thu 10:32:00 AM 49.3289 -162.4406 101° East 496 571 39,000  Level FlightAware Transoceanic
Thu 10:33:00 AM 49.3035 -162.2360 101° East 496 571 39,000  Level FlightAware Transoceanic
Thu 10:34:00 AM 49.2776 -162.0316 101° East 496 571 39,000  Level FlightAware Transoceanic
Thu 10:35:00 AM 49.2515 -161.8275 101° East 496 571 39,000  Level FlightAware Transoceanic
Thu 10:36:00 AM 49.2250 -161.6235 101° East 496 571 39,000  Level FlightAware Transoceanic
Thu 10:37:00 AM 49.1960 -161.4223 101° East 492 566 39,000  Level FlightAware Transoceanic
Thu 10:38:00 AM 49.1691 -161.2184 102° East 492 566 39,000  Level FlightAware Transoceanic
Thu 10:39:00 AM 49.1418 -161.0148 102° East 492 566 39,000  Level FlightAware Transoceanic
Thu 10:40:00 AM 49.1141 -160.8114 102° East 492 566 39,000  Level FlightAware Transoceanic
Thu 10:41:00 AM 49.0861 -160.6082 102° East 492 566 39,000  Level FlightAware Transoceanic
Thu 10:42:00 AM 49.0578 -160.4052 102° East 492 566 39,000  Level FlightAware Transoceanic
Thu 10:43:00 AM 49.0291 -160.2025 102° East 492 566 39,000  Level FlightAware Transoceanic
Thu 10:43:58 AM 49.0000 -160.0000 110° East 501 577 39,000  Level Oakland Oceanic (ODAPS)
Thu 10:44:00 AM 49.0000 -160.0000 110° East 492 566 39,000  Level FlightAware Transoceanic
Thu 10:44:47 AM 48.9667 -159.8333 110° East 503 579 39,000  Level Oakland Oceanic (ODAPS)
Thu 10:45:00 AM 48.9517 -159.8009 110° East 492 566 39,000  Level FlightAware Transoceanic
Thu 10:46:00 AM 48.9031 -159.6021 110° East 492 566 39,000  Level FlightAware Transoceanic
Thu 10:47:00 AM 48.8542 -159.4038 111° Southeast 492 566 39,000  Level FlightAware Transoceanic
Thu 10:48:00 AM 48.8049 -159.2058 111° Southeast 492 566 39,000  Level FlightAware Transoceanic
Thu 10:49:00 AM 48.7552 -159.0083 111° Southeast 492 566 39,000  Level FlightAware Transoceanic
Thu 10:50:00 AM 48.7053 -158.8111 111° Southeast 501 577 39,000  Level FlightAware Transoceanic
Thu 10:51:00 AM 48.6685 -158.6425 111° Southeast 503 579 39,000  Level FlightAware Transoceanic
Thu 10:52:00 AM 48.6176 -158.4454 111° Southeast 503 579 39,000  Level FlightAware Transoceanic
Thu 10:53:00 AM 48.5664 -158.2487 112° Southeast 503 579 39,000  Level FlightAware Transoceanic
Thu 10:54:00 AM 48.5148 -158.0524 112° Southeast 503 579 39,000  Level FlightAware Transoceanic
Thu 10:54:40 AM 48.4667 -157.9167 112° Southeast 503 579 39,000  Level Oakland Oceanic (ODAPS)
Thu 10:55:00 AM 48.4629 -157.8565 112° Southeast 503 579 39,000  Level FlightAware Transoceanic
Thu 10:56:00 AM 48.4107 -157.6611 112° Southeast 503 579 39,000  Level FlightAware Transoceanic
Thu 10:57:00 AM 48.3581 -157.4660 112° Southeast 503 579 39,000  Level FlightAware Transoceanic
Thu 10:58:00 AM 48.3053 -157.2713 112° Southeast 503 579 39,000  Level FlightAware Transoceanic
Thu 10:58:48 AM 48.2667 -157.1667 112° Southeast 500 575 39,000  Level Oakland Oceanic (ODAPS)
Thu 10:59:00 AM 48.2520 -157.0770 112° Southeast 503 579 39,000  Level FlightAware Transoceanic
Thu 11:00:00 AM 48.1559 -156.7680 113° Southeast 503 579 39,000  Level FlightAware Transoceanic
Thu 11:01:00 AM 48.1030 -156.5779 113° Southeast 503 579 39,000  Level FlightAware Transoceanic
Thu 11:02:00 AM 48.0498 -156.3882 113° Southeast 503 579 39,000  Level FlightAware Transoceanic
Thu 11:03:00 AM 47.9963 -156.1989 113° Southeast 503 579 39,000  Level FlightAware Transoceanic
Thu 11:04:00 AM 47.9425 -156.0100 113° Southeast 503 579 39,000  Level FlightAware Transoceanic
Thu 11:05:00 AM 47.8933 -155.8355 113° Southeast 500 575 39,000  Level FlightAware Transoceanic
Thu 11:06:00 AM 47.8387 -155.6469 113° Southeast 500 575 39,000  Level FlightAware Transoceanic
Thu 11:07:00 AM 47.7839 -155.4587 114° Southeast 500 575 39,000  Level FlightAware Transoceanic
Thu 11:08:00 AM 47.7287 -155.2709 114° Southeast 500 575 39,000  Level FlightAware Transoceanic
Thu 11:09:00 AM 47.6731 -155.0835 114° Southeast 500 575 39,000  Level FlightAware Transoceanic
Thu 11:10:00 AM 47.6174 -154.8965 114° Southeast 500 575 39,000  Level FlightAware Transoceanic
Thu 11:11:00 AM 47.5612 -154.7099 114° Southeast 500 575 39,000  Level FlightAware Transoceanic
Thu 11:12:00 AM 47.5048 -154.5237 114° Southeast 500 575 39,000  Level FlightAware Transoceanic
Thu 11:12:31 AM 47.5167 -154.5500 114° Southeast 499 574 39,000  Level Oakland Oceanic (ODAPS)
Thu 11:13:00 AM 47.4481 -154.3380 114° Southeast 500 575 39,000  Level FlightAware Transoceanic
Thu 11:14:00 AM 47.3911 -154.1526 115° Southeast 500 575 39,000  Level FlightAware Transoceanic
Thu 11:15:00 AM 47.3338 -153.9676 115° Southeast 500 575 39,000  Level FlightAware Transoceanic
Thu 11:16:00 AM 47.2762 -153.7830 115° Southeast 500 575 39,000  Level FlightAware Transoceanic
Thu 11:17:00 AM 47.2183 -153.5988 115° Southeast 500 575 39,000  Level FlightAware Transoceanic
Thu 11:18:00 AM 47.1693 -153.4346 115° Southeast 499 574 39,000  Level FlightAware Transoceanic
Thu 11:19:00 AM 47.1103 -153.2502 115° Southeast 499 574 39,000  Level FlightAware Transoceanic
Thu 11:20:00 AM 47.0511 -153.0661 115° Southeast 499 574 39,000  Level FlightAware Transoceanic
Thu 11:21:00 AM 46.9916 -152.8825 116° Southeast 499 574 39,000  Level FlightAware Transoceanic
Thu 11:22:00 AM 46.9317 -152.6993 116° Southeast 499 574 39,000  Level FlightAware Transoceanic
Thu 11:23:00 AM 46.8716 -152.5164 116° Southeast 499 574 39,000  Level FlightAware Transoceanic
Thu 11:24:00 AM 46.8112 -152.3340 116° Southeast 499 574 39,000  Level FlightAware Transoceanic
Thu 11:25:00 AM 46.7505 -152.1520 116° Southeast 499 574 39,000  Level FlightAware Transoceanic
Thu 11:26:00 AM 46.6895 -151.9704 116° Southeast 499 574 39,000 643 Level FlightAware Transoceanic
Thu 11:26:24 AM 46.6833 -151.9667 116° Southeast 511 588 39,900  Climbing Oakland Oceanic (ODAPS)
Thu 11:27:00 AM 46.6282 -151.7892 116° Southeast 499 574 39,000 -563 Descending FlightAware Transoceanic
Thu 11:28:00 AM 46.5667 -151.6085 116° Southeast 499 574 39,000  Level FlightAware Transoceanic
Thu 11:29:00 AM 46.5048 -151.4281 117° Southeast 499 574 39,000  Level FlightAware Transoceanic
Thu 11:30:00 AM 46.4427 -151.2482 117° Southeast 499 574 39,000  Level FlightAware Transoceanic
Thu 11:31:00 AM 46.3803 -151.0686 117° Southeast 499 574 39,000 450 Level FlightAware Transoceanic
Thu 11:32:00 AM 46.3148 -150.8878 117° Southeast 511 588 39,900 450 Climbing FlightAware Transoceanic
Thu 11:33:00 AM 46.2524 -150.7095 117° Southeast 511 588 39,900  Level FlightAware Transoceanic
Thu 11:34:00 AM 46.1897 -150.5315 117° Southeast 511 588 39,900  Level FlightAware Transoceanic
Thu 11:35:00 AM 46.1267 -150.3539 117° Southeast 511 588 39,900  Level FlightAware Transoceanic
Thu 11:36:00 AM 46.0635 -150.1768 117° Southeast 511 588 39,900  Level FlightAware Transoceanic
Thu 11:37:00 AM 46.0000 -150.0000 109° East 511 588 39,900 91 Level FlightAware Transoceanic
Thu 11:37:06 AM 46.0000 -150.0000 109° East 515 593 40,000  Climbing Oakland Oceanic (ODAPS)
Thu 11:38:00 AM 45.9535 -149.8091 109° East 511 588 39,900 -53 Descending FlightAware Transoceanic
Thu 11:39:00 AM 45.9067 -149.6186 110° East 511 588 39,900  Level FlightAware Transoceanic
Thu 11:40:00 AM 45.8596 -149.4283 110° East 511 588 39,900 80 Level FlightAware Transoceanic
Thu 11:40:15 AM 45.8500 -149.3833 110° East 520 598 40,000  Climbing Oakland Oceanic (ODAPS)
Thu 11:41:00 AM 45.8121 -149.2384 110° East 511 588 39,900 -57 Descending FlightAware Transoceanic
Thu 11:42:00 AM 45.7644 -149.0489 110° East 511 588 39,900 50 Level FlightAware Transoceanic
Thu 11:43:00 AM 45.7109 -148.8386 110° East 515 593 40,000 50 Climbing FlightAware Transoceanic
Thu 11:44:00 AM 45.6616 -148.6462 110° East 515 593 40,000  Level FlightAware Transoceanic
Thu 11:45:00 AM 45.6120 -148.4542 110° East 515 593 40,000  Level FlightAware Transoceanic
Thu 11:46:00 AM 45.5556 -148.2323 111° Southeast 520 598 40,000  Level FlightAware Transoceanic
Thu 11:47:00 AM 45.5054 -148.0417 111° Southeast 520 598 40,000  Level FlightAware Transoceanic
Thu 11:48:00 AM 45.4549 -147.8514 111° Southeast 520 598 40,000  Level FlightAware Transoceanic
Thu 11:49:00 AM 45.4041 -147.6614 111° Southeast 520 598 40,000  Level FlightAware Transoceanic
Thu 11:50:00 AM 45.3530 -147.4718 111° Southeast 520 598 40,000  Level FlightAware Transoceanic
Thu 11:51:00 AM 45.3015 -147.2825 111° Southeast 520 598 40,000  Level FlightAware Transoceanic
Thu 11:52:00 AM 45.2498 -147.0936 111° Southeast 520 598 40,000  Level FlightAware Transoceanic
Thu 11:53:00 AM 45.1977 -146.9050 111° Southeast 520 598 40,000  Level FlightAware Transoceanic
Thu 11:54:00 AM 45.1453 -146.7168 112° Southeast 520 598 40,000  Level FlightAware Transoceanic
Thu 11:54:07 AM 45.1500 -146.7500 112° Southeast 515 593 40,000  Level Oakland Oceanic (ODAPS)
Thu 11:55:00 AM 45.0926 -146.5289 112° Southeast 520 598 40,000  Level FlightAware Transoceanic
Thu 11:56:00 AM 45.0396 -146.3413 112° Southeast 520 598 40,000  Level FlightAware Transoceanic
Thu 11:57:00 AM 44.9863 -146.1541 112° Southeast 520 598 40,000  Level FlightAware Transoceanic
Thu 11:58:00 AM 44.9327 -145.9672 112° Southeast 520 598 40,000  Level FlightAware Transoceanic
Thu 11:59:00 AM 44.8788 -145.7807 112° Southeast 520 598 40,000  Level FlightAware Transoceanic
Thu 12:00:00 PM 44.8288 -145.6222 112° Southeast 515 593 40,000  Level FlightAware Transoceanic
Thu 12:01:00 PM 44.7742 -145.4355 112° Southeast 515 593 40,000  Level FlightAware Transoceanic
Thu 12:02:00 PM 44.7193 -145.2491 113° Southeast 515 593 40,000  Level FlightAware Transoceanic
Thu 12:03:00 PM 44.6641 -145.0631 113° Southeast 515 593 40,000  Level FlightAware Transoceanic
Thu 12:04:00 PM 44.6086 -144.8774 113° Southeast 515 593 40,000  Level FlightAware Transoceanic
Thu 12:05:00 PM 44.5527 -144.6921 113° Southeast 515 593 40,000  Level FlightAware Transoceanic
Thu 12:06:00 PM 44.4966 -144.5071 113° Southeast 515 593 40,000  Level FlightAware Transoceanic
Thu 12:07:00 PM 44.4402 -144.3225 113° Southeast 515 593 40,000  Level FlightAware Transoceanic
Thu 12:07:59 PM 44.4000 -144.1667 113° Southeast 522 601 40,000  Level Oakland Oceanic (ODAPS)
Thu 12:08:00 PM 44.3835 -144.1383 113° Southeast 515 593 40,000  Level FlightAware Transoceanic
Thu 12:09:00 PM 44.3265 -143.9544 114° Southeast 515 593 40,000  Level FlightAware Transoceanic
Thu 12:10:00 PM 44.2692 -143.7709 114° Southeast 515 593 40,000  Level FlightAware Transoceanic
Thu 12:11:00 PM 44.2116 -143.5877 114° Southeast 515 593 40,000  Level FlightAware Transoceanic
Thu 12:12:00 PM 44.1537 -143.4049 114° Southeast 515 593 40,000  Level FlightAware Transoceanic
Thu 12:13:00 PM 44.0956 -143.2224 114° Southeast 515 593 40,000  Level FlightAware Transoceanic
Thu 12:14:00 PM 44.0495 -143.0610 114° Southeast 522 601 40,000  Level FlightAware Transoceanic
Thu 12:15:00 PM 43.9900 -142.8780 114° Southeast 522 601 40,000  Level FlightAware Transoceanic
Thu 12:16:00 PM 43.9303 -142.6953 115° Southeast 522 601 40,000  Level FlightAware Transoceanic
Thu 12:17:00 PM 43.8703 -142.5131 115° Southeast 522 601 40,000  Level FlightAware Transoceanic
Thu 12:18:00 PM 43.8099 -142.3312 115° Southeast 522 601 40,000  Level FlightAware Transoceanic
Thu 12:19:00 PM 43.7493 -142.1496 115° Southeast 522 601 40,000  Level FlightAware Transoceanic
Thu 12:20:00 PM 43.6884 -141.9685 115° Southeast 522 601 40,000  Level FlightAware Transoceanic
Thu 12:21:00 PM 43.6273 -141.7877 115° Southeast 522 601 40,000  Level FlightAware Transoceanic
Thu 12:22:00 PM 43.5658 -141.6072 115° Southeast 522 601 40,000  Level FlightAware Transoceanic
Thu 12:23:00 PM 43.5040 -141.4272 115° Southeast 522 601 40,000  Level FlightAware Transoceanic
Thu 12:24:00 PM 43.4420 -141.2475 116° Southeast 522 601 40,000  Level FlightAware Transoceanic
Thu 12:25:00 PM 43.3797 -141.0682 116° Southeast 522 601 40,000  Level FlightAware Transoceanic
Thu 12:25:04 PM 43.3667 -141.0500 115° Southeast 527 606 40,000  Level Oakland Oceanic (ODAPS)
Thu 12:26:00 PM 43.3171 -140.8892 116° Southeast 522 601 40,000  Level FlightAware Transoceanic
Thu 12:27:00 PM 43.2542 -140.7106 116° Southeast 522 601 40,000  Level FlightAware Transoceanic
Thu 12:28:00 PM 43.1911 -140.5324 116° Southeast 522 601 40,000  Level FlightAware Transoceanic
Thu 12:29:00 PM 43.1277 -140.3546 116° Southeast 522 601 40,000  Level FlightAware Transoceanic
Thu 12:30:00 PM 43.0640 -140.1771 116° Southeast 522 601 40,000  Level FlightAware Transoceanic
Thu 12:31:00 PM 43.0000 -140.0000 108° East 527 606 40,000  Level FlightAware Transoceanic
Thu 12:32:00 PM 42.9551 -139.8167 109° East 527 606 40,000  Level FlightAware Transoceanic
Thu 12:33:00 PM 42.9099 -139.6337 109° East 527 606 40,000  Level FlightAware Transoceanic
Thu 12:34:00 PM 42.8644 -139.4509 109° East 527 606 40,000  Level FlightAware Transoceanic
Thu 12:35:00 PM 42.8186 -139.2684 109° East 527 606 40,000  Level FlightAware Transoceanic
Thu 12:36:00 PM 42.7725 -139.0862 109° East 527 606 40,000  Level FlightAware Transoceanic
Thu 12:37:00 PM 42.7261 -138.9043 109° East 527 606 40,000  Level FlightAware Transoceanic
Thu 12:38:00 PM 42.6794 -138.7226 109° East 527 606 40,000  Level FlightAware Transoceanic
Thu 12:39:00 PM 42.6325 -138.5412 109° East 527 606 40,000  Level FlightAware Transoceanic
Thu 12:40:00 PM 42.5853 -138.3600 110° East 527 606 40,000  Level FlightAware Transoceanic
Thu 12:41:00 PM 42.5377 -138.1792 110° East 527 606 40,000  Level FlightAware Transoceanic
Thu 12:41:44 PM 42.4833 -137.9833 110° East 516 594 40,000  Level Oakland Oceanic (ODAPS)
Thu 12:42:00 PM 42.4899 -137.9986 110° East 527 606 40,000  Level FlightAware Transoceanic
Thu 12:43:00 PM 42.4418 -137.8183 110° East 527 606 40,000  Level FlightAware Transoceanic
Thu 12:44:00 PM 42.3935 -137.6383 110° East 527 606 40,000  Level FlightAware Transoceanic
Thu 12:45:00 PM 42.3448 -137.4585 110° East 527 606 40,000  Level FlightAware Transoceanic
Thu 12:46:00 PM 42.2959 -137.2791 110° East 527 606 40,000  Level FlightAware Transoceanic
Thu 12:47:00 PM 42.2352 -137.0665 110° East 516 594 40,000  Level FlightAware Transoceanic
Thu 12:48:00 PM 42.1847 -136.8841 111° Southeast 516 594 40,000  Level FlightAware Transoceanic
Thu 12:49:00 PM 42.1339 -136.7019 111° Southeast 516 594 40,000  Level FlightAware Transoceanic
Thu 12:50:00 PM 42.0829 -136.5200 111° Southeast 516 594 40,000  Level FlightAware Transoceanic
Thu 12:51:00 PM 42.0315 -136.3384 111° Southeast 516 594 40,000  Level FlightAware Transoceanic
Thu 12:52:00 PM 41.9799 -136.1571 111° Southeast 516 594 40,000  Level FlightAware Transoceanic
Thu 12:53:00 PM 41.9280 -135.9760 111° Southeast 516 594 40,000  Level FlightAware Transoceanic
Thu 12:54:00 PM 41.8757 -135.7953 111° Southeast 516 594 40,000  Level FlightAware Transoceanic
Thu 12:55:00 PM 41.8232 -135.6149 111° Southeast 516 594 40,000  Level FlightAware Transoceanic
Thu 12:55:36 PM 41.7667 -135.4333 111° Southeast 516 594 40,000  Level Oakland Oceanic (ODAPS)
Thu 12:56:00 PM 41.7705 -135.4348 112° Southeast 516 594 40,000  Level FlightAware Transoceanic
Thu 12:57:00 PM 41.7174 -135.2549 112° Southeast 516 594 40,000  Level FlightAware Transoceanic
Thu 12:58:00 PM 41.6641 -135.0754 112° Southeast 516 594 40,000  Level FlightAware Transoceanic
Thu 12:59:00 PM 41.6105 -134.8961 112° Southeast 516 594 40,000  Level FlightAware Transoceanic
Thu 01:00:00 PM 41.5566 -134.7172 112° Southeast 516 594 40,000  Level FlightAware Transoceanic
Thu 01:01:00 PM 41.4551 -134.3925 112° Southeast 516 594 40,000  Level FlightAware Transoceanic
Thu 01:02:00 PM 41.4022 -134.2201 112° Southeast 516 594 40,000  Level FlightAware Transoceanic
Thu 01:03:00 PM 41.3491 -134.0479 112° Southeast 516 594 40,000  Level FlightAware Transoceanic
Thu 01:04:00 PM 41.2958 -133.8759 113° Southeast 516 594 40,000  Level FlightAware Transoceanic
Thu 01:04:18 PM 41.3167 -133.9167 113° Southeast 510 587 40,000  Level Oakland Oceanic (ODAPS)
Thu 01:05:00 PM 41.2422 -133.7043 113° Southeast 516 594 40,000  Level FlightAware Transoceanic
Thu 01:06:00 PM 41.1883 -133.5329 113° Southeast 516 594 40,000  Level FlightAware Transoceanic
Thu 01:07:00 PM 41.1342 -133.3619 113° Southeast 516 594 40,000  Level FlightAware Transoceanic
Thu 01:08:00 PM 41.0798 -133.1911 113° Southeast 516 594 40,000  Level FlightAware Transoceanic
Thu 01:09:00 PM 41.0252 -133.0206 113° Southeast 516 594 40,000  Level FlightAware Transoceanic
Thu 01:10:00 PM 40.9860 -132.8800 113° Southeast 510 587 40,000  Level FlightAware Transoceanic
Thu 01:11:00 PM 40.9300 -132.7083 113° Southeast 510 587 40,000  Level FlightAware Transoceanic
Thu 01:12:00 PM 40.8738 -132.5368 114° Southeast 510 587 40,000  Level FlightAware Transoceanic
Thu 01:13:00 PM 40.8173 -132.3656 114° Southeast 510 587 40,000  Level FlightAware Transoceanic
Thu 01:14:00 PM 40.7605 -132.1948 114° Southeast 510 587 40,000  Level FlightAware Transoceanic
Thu 01:15:00 PM 40.7035 -132.0242 114° Southeast 510 587 40,000  Level FlightAware Transoceanic
Thu 01:16:00 PM 40.6462 -131.8539 114° Southeast 510 587 40,000  Level FlightAware Transoceanic
Thu 01:17:00 PM 40.5887 -131.6839 114° Southeast 510 587 40,000  Level FlightAware Transoceanic
Thu 01:18:00 PM 40.5309 -131.5142 114° Southeast 510 587 40,000 938 Level FlightAware Transoceanic
Thu 01:18:04 PM 40.5333 -131.5500 114° Southeast 515 593 41,000  Climbing Oakland Oceanic (ODAPS)
Thu 01:19:00 PM 40.4729 -131.3448 114° Southeast 510 587 40,000 -517 Descending FlightAware Transoceanic
Thu 01:20:00 PM 40.4147 -131.1756 114° Southeast 510 587 40,000  Level FlightAware Transoceanic
Thu 01:21:00 PM 40.3562 -131.0068 115° Southeast 510 587 40,000  Level FlightAware Transoceanic
Thu 01:22:00 PM 40.2974 -130.8383 115° Southeast 510 587 40,000  Level FlightAware Transoceanic
Thu 01:23:00 PM 40.2384 -130.6700 115° Southeast 510 587 40,000 500 Level FlightAware Transoceanic
Thu 01:24:00 PM 40.1801 -130.5139 114° Southeast 515 593 41,000 500 Climbing FlightAware Transoceanic
Thu 01:25:00 PM 40.1203 -130.3423 115° Southeast 515 593 41,000  Level FlightAware Transoceanic
Thu 01:26:00 PM 40.0603 -130.1710 115° Southeast 515 593 41,000  Level FlightAware Transoceanic
Thu 01:27:00 PM 40.0000 -130.0000 122° Southeast 515 593 41,000  Level FlightAware Transoceanic
Thu 01:27:18 PM 40.0000 -130.0000 122° Southeast 512 589 41,000  Level Oakland Oceanic (ODAPS)
Thu 01:28:00 PM 39.9252 -129.8469 123° Southeast 515 593 41,000  Level FlightAware Transoceanic
Thu 01:29:00 PM 39.8502 -129.6941 123° Southeast 515 593 41,000  Level FlightAware Transoceanic
Thu 01:30:00 PM 39.7750 -129.5416 123° Southeast 515 593 41,000  Level FlightAware Transoceanic
Thu 01:31:00 PM 39.6996 -129.3895 123° Southeast 515 593 41,000  Level FlightAware Transoceanic
Thu 01:31:52 PM 39.6500 -129.2667 123° Southeast 509 586 41,000  Level Oakland Oceanic (ODAPS)
Thu 01:32:00 PM 39.6239 -129.2377 123° Southeast 515 593 41,000  Level FlightAware Transoceanic
Thu 01:33:00 PM 39.5481 -129.0862 123° Southeast 512 589 41,000  Level FlightAware Transoceanic
Thu 01:34:00 PM 39.4721 -128.9350 123° Southeast 512 589 41,000  Level FlightAware Transoceanic
Thu 01:35:00 PM 39.3959 -128.7842 123° Southeast 512 589 41,000  Level FlightAware Transoceanic
Thu 01:36:00 PM 39.3195 -128.6338 123° Southeast 512 589 41,000  Level FlightAware Transoceanic
Thu 01:37:00 PM 39.2430 -128.4836 123° Southeast 512 589 41,000  Level FlightAware Transoceanic
Thu 01:37:04 PM 39.2333 -128.4833 123° Southeast 509 586 41,000  Level Oakland Oceanic (ODAPS)
Thu 01:38:00 PM 39.1819 -128.3509 124° Southeast 509 586 41,000  Level FlightAware Transoceanic
Thu 01:39:00 PM 39.1032 -128.1994 124° Southeast 509 586 41,000  Level FlightAware Transoceanic
Thu 01:40:00 PM 39.0243 -128.0483 124° Southeast 509 586 41,000  Level FlightAware Transoceanic
Thu 01:41:00 PM 38.9453 -127.8976 124° Southeast 509 586 41,000  Level FlightAware Transoceanic
Thu 01:42:00 PM 38.8660 -127.7471 124° Southeast 509 586 41,000  Level FlightAware Transoceanic
Thu 01:43:00 PM 38.7756 -127.5895 124° Southeast 509 586 41,000  Level FlightAware Transoceanic
Thu 01:44:00 PM 38.6986 -127.4417 124° Southeast 509 586 41,000  Level FlightAware Transoceanic
Thu 01:44:10 PM 38.6881 -127.4367 111° Southeast 508 585 41,000  Level Oakland Center
Thu 01:45:00 PM 38.6215 -127.2941 124° Southeast 509 586 41,000 -97 Level FlightAware Transoceanic
Thu 01:45:12 PM 38.5975 -127.2556 123° Southeast 506 582 40,900  Descending Oakland Center
Thu 01:45:43 PM 38.5667 -127.1667 127° Southeast 511 588 41,000 125 Climbing Oakland Oceanic (ODAPS)
Thu 01:46:00 PM 38.5442 -127.1469 124° Southeast 509 586 41,000  Level FlightAware Transoceanic
Thu 01:47:00 PM 38.4667 -127.0000 111° Southeast 509 586 41,000  Level FlightAware Transoceanic
Thu 01:48:00 PM 38.4158 -126.8324 111° Southeast 509 586 41,000  Level FlightAware Transoceanic
Thu 01:49:00 PM 38.3646 -126.6650 111° Southeast 509 586 41,000  Level FlightAware Transoceanic
Thu 01:51:12 PM 38.2130 -126.2790 127° Southeast 512 589 41,000  Level FlightAware ADS-B
Thu 01:51:46 PM 38.1800 -126.1890 115° Southeast 512 589 41,000  Level FlightAware ADS-B
Thu 01:52:18 PM 38.1480 -126.1020 115° Southeast 512 589 41,000  Level FlightAware ADS-B
Thu 01:52:52 PM 38.1130 -126.0090 116° Southeast 511 588 41,000  Level FlightAware ADS-B
Thu 01:53:34 PM 38.0700 -125.8940 115° Southeast 509 586 41,000  Level FlightAware ADS-B
Thu 01:54:08 PM 38.0360 -125.8020 115° Southeast 509 586 41,000  Level FlightAware ADS-B
Thu 01:54:43 PM 38.0020 -125.7100 115° Southeast 510 587 41,000  Level FlightAware ADS-B
Thu 01:55:16 PM 37.9690 -125.6220 115° Southeast 511 588 41,000  Level FlightAware ADS-B
Thu 01:55:46 PM 37.9370 -125.5390 116° Southeast 510 587 41,000  Level FlightAware ADS-B
Thu 01:56:28 PM 37.8940 -125.4260 116° Southeast 511 588 41,000  Level FlightAware ADS-B
Thu 01:57:03 PM 37.8600 -125.3340 115° Southeast 512 589 41,000  Level FlightAware ADS-B
Thu 01:57:36 PM 37.8250 -125.2430 116° Southeast 511 588 41,000  Level FlightAware ADS-B
Thu 01:58:13 PM 37.7880 -125.1450 116° Southeast 509 586 41,000  Level FlightAware ADS-B
Thu 01:58:46 PM 37.7540 -125.0570 116° Southeast 510 587 41,000  Level FlightAware ADS-B
Thu 01:59:22 PM 37.7160 -124.9580 116° Southeast 510 587 41,000  Level FlightAware ADS-B
Thu 01:59:52 PM 37.6860 -124.8780 115° Southeast 510 587 41,000  Level FlightAware ADS-B
Thu 02:00:32 PM 37.6460 -124.7740 116° Southeast 511 588 41,000  Level FlightAware ADS-B
Thu 02:01:02 PM 37.6150 -124.6940 116° Southeast 510 587 41,000  Level FlightAware ADS-B
Thu 02:01:34 PM 37.5800 -124.6050 116° Southeast 507 583 41,000  Level FlightAware ADS-B
Thu 02:02:10 PM 37.5450 -124.5140 116° Southeast 506 582 41,000  Level FlightAware ADS-B
Thu 02:02:44 PM 37.5080 -124.4200 116° Southeast 505 581 41,000  Level FlightAware ADS-B
Thu 02:03:20 PM 37.4720 -124.3290 116° Southeast 504 580 41,000  Level FlightAware ADS-B
Thu 02:03:54 PM 37.4380 -124.2410 116° Southeast 502 578 41,000  Level FlightAware ADS-B
Thu 02:04:32 PM 37.3980 -124.1390 116° Southeast 500 575 41,000  Level FlightAware ADS-B
Thu 02:05:22 PM 37.3520 -124.0220 116° Southeast 500 575 41,000  Level FlightAware ADS-B
Thu 02:06:01 PM 37.3070 -123.9110 117° Southeast 499 574 41,000  Level FlightAware ADS-B
Thu 02:06:39 PM 37.2680 -123.8120 116° Southeast 499 574 41,000  Level FlightAware ADS-B
Thu 02:07:11 PM 37.2350 -123.7290 117° Southeast 500 575 41,000  Level FlightAware ADS-B
Thu 02:07:47 PM 37.1980 -123.6360 117° Southeast 500 575 41,000  Level FlightAware ADS-B
Thu 02:08:21 PM 37.1620 -123.5480 117° Southeast 499 574 41,000  Level FlightAware ADS-B
Thu 02:08:59 PM 37.1230 -123.4500 117° Southeast 499 574 41,000  Level FlightAware ADS-B
Thu 02:09:28 PM 37.0920 -123.3730 117° Southeast 499 574 41,000  Level FlightAware ADS-B
Thu 02:10:06 PM 37.0520 -123.2740 117° Southeast 499 574 41,000  Level FlightAware ADS-B
Thu 02:10:42 PM 37.0140 -123.1810 117° Southeast 500 575 41,000  Level FlightAware ADS-B
Thu 02:11:18 PM 36.9770 -123.0900 117° Southeast 501 577 41,000  Level FlightAware ADS-B
Thu 02:11:52 PM 36.9410 -123.0000 117° Southeast 500 575 41,000  Level FlightAware ADS-B
Thu 02:12:28 PM 36.9040 -122.9100 117° Southeast 499 574 41,000  Level FlightAware ADS-B
Thu 02:12:58 PM 36.8730 -122.8340 117° Southeast 498 573 41,000  Level FlightAware ADS-B
Thu 02:13:36 PM 36.8320 -122.7360 118° Southeast 497 572 41,000  Level FlightAware ADS-B
Thu 02:14:12 PM 36.7940 -122.6440 117° Southeast 496 571 41,000  Level FlightAware ADS-B
Thu 02:14:46 PM 36.7590 -122.5580 117° Southeast 497 572 41,000  Level FlightAware ADS-B
Thu 02:15:20 PM 36.7230 -122.4710 117° Southeast 499 574 41,000  Level FlightAware ADS-B
Thu 02:15:56 PM 36.6840 -122.3780 118° Southeast 500 575 41,000  Level FlightAware ADS-B
Thu 02:16:33 PM 36.6460 -122.2860 117° Southeast 502 578 41,000  Level FlightAware ADS-B
Thu 02:17:13 PM 36.6021 -122.1820 118° Southeast 501 577 41,000  Level FlightAware ADS-B
Thu 02:17:48 PM 36.5640 -122.0920 118° Southeast 501 577 41,000  Level FlightAware ADS-B
Thu 02:18:24 PM 36.5260 -122.0000 117° Southeast 504 580 41,000  Level FlightAware ADS-B
Thu 02:18:56 PM 36.4910 -121.9190 118° Southeast 505 581 41,000  Level FlightAware ADS-B
Thu 02:19:32 PM 36.4530 -121.8290 118° Southeast 505 581 41,000  Level FlightAware ADS-B
Thu 02:20:08 PM 36.4140 -121.7370 118° Southeast 496 571 41,000  Level FlightAware ADS-B
Thu 02:20:46 PM 36.3740 -121.6420 118° Southeast 481 554 41,000  Level FlightAware ADS-B
Thu 02:21:18 PM 36.3410 -121.5640 118° Southeast 474 545 41,000  Level FlightAware ADS-B
Thu 02:21:50 PM 36.3090 -121.4900 118° Southeast 469 540 41,000  Level FlightAware ADS-B
Thu 02:22:28 PM 36.2700 -121.3980 118° Southeast 471 542 41,000  Level FlightAware ADS-B
Thu 02:23:03 PM 36.2340 -121.3140 118° Southeast 472 543 41,000 -312 Level FlightAware ADS-B
Thu 02:23:45 PM 36.1892 -121.2120 119° Southeast 477 549 40,600 -742 Descending FlightAware ADS-B
Thu 02:24:32 PM 36.1406 -121.0990 118° Southeast 471 542 39,900 -1,000 Descending FlightAware ADS-B
Thu 02:25:21 PM 36.0930 -120.9900 118° Southeast 455 524 39,000 -621 Descending FlightAware ADS-B
Thu 02:25:59 PM 36.0550 -120.9030 118° Southeast 454 522 39,000  Level FlightAware ADS-B
Thu 02:26:34 PM 36.0210 -120.8230 118° Southeast 462 532 39,000  Level FlightAware ADS-B
Thu 02:27:08 PM 35.9870 -120.7460 119° Southeast 465 535 39,000  Level FlightAware ADS-B
Thu 02:27:43 PM 35.9490 -120.6600 119° Southeast 468 539 39,000  Level FlightAware ADS-B
Thu 02:28:20 PM 35.9110 -120.5720 118° Southeast 467 537 39,000  Level FlightAware ADS-B
Thu 02:28:54 PM 35.8760 -120.4930 119° Southeast 465 535 39,000  Level FlightAware ADS-B
Thu 02:29:28 PM 35.8410 -120.4140 119° Southeast 467 537 39,000  Level FlightAware ADS-B
Thu 02:30:00 PM 35.8070 -120.3390 119° Southeast 471 542 39,000  Level FlightAware ADS-B
Thu 02:30:38 PM 35.7690 -120.2530 119° Southeast 474 545 39,000  Level FlightAware ADS-B
Thu 02:31:18 PM 35.7250 -120.1540 119° Southeast 472 543 39,000  Level FlightAware ADS-B
Thu 02:31:49 PM 35.6940 -120.0840 119° Southeast 473 544 39,000  Level FlightAware ADS-B
Thu 02:32:32 PM 35.6560 -119.9950 118° Southeast 473 544 39,000  Level FlightAware ADS-B
Thu 02:33:09 PM 35.6230 -119.9210 119° Southeast 473 544 39,000  Level FlightAware ADS-B
Thu 02:33:45 PM 35.5920 -119.8480 118° Southeast 473 544 39,000  Level FlightAware ADS-B
Thu 02:34:21 PM 35.5600 -119.7750 118° Southeast 473 544 39,000  Level FlightAware ADS-B
Thu 02:34:57 PM 35.5290 -119.7030 118° Southeast 473 544 39,000  Level FlightAware ADS-B
Thu 02:35:43 PM 35.4890 -119.6100 118° Southeast 473 544 39,000  Level FlightAware ADS-B
Thu 02:36:19 PM 35.4570 -119.5370 118° Southeast 473 544 39,000  Level FlightAware ADS-B
Thu 02:37:08 PM 35.4140 -119.4380 118° Southeast 473 544 39,000 -7,765 Level FlightAware ADS-B
Thu 02:37:27 PM 35.1330 -119.5370 196° South 465 535 30,200 -11,529 Descending FlightAware ADS-B
Thu 02:37:59 PM 35.0770 -119.4890 145° Southeast 460 529 29,200 -1,909 Descending FlightAware ADS-B
Thu 02:38:33 PM 35.0160 -119.4360 145° Southeast 453 521 28,100 -1,971 Descending FlightAware ADS-B
Thu 02:39:09 PM 34.9550 -119.3850 146° Southeast 441 507 26,900 -1,865 Descending FlightAware ADS-B
Thu 02:39:47 PM 34.8940 -119.3330 145° Southeast 430 495 25,800 -1,737 Descending FlightAware ADS-B
Thu 02:40:25 PM 34.8370 -119.2850 145° Southeast 427 491 24,700 -795 Descending FlightAware ADS-B
Thu 02:41:10 PM 34.7810 -119.2370 145° Southeast 427 491 24,700  Level FlightAware ADS-B
Thu 02:41:47 PM 34.7300 -119.1940 145° Southeast 427 491 24,700  Level FlightAware ADS-B
Thu 02:42:23 PM 34.6800 -119.1520 145° Southeast 427 491 24,700  Level FlightAware ADS-B
Thu 02:43:00 PM 34.6300 -119.1080 144° Southeast 427 491 24,700  Level FlightAware ADS-B
Thu 02:43:36 PM 34.5800 -119.0660 145° Southeast 427 491 24,700 -4,705 Level FlightAware ADS-B
Thu 02:44:28 PM 34.4610 -118.9680 146° Southeast 388 447 17,800 -5,515 Descending FlightAware ADS-B
Thu 02:45:15 PM 34.3880 -118.9070 145° Southeast 368 423 15,600 -1,733 Descending FlightAware ADS-B
Thu 02:45:58 PM 34.3330 -118.8680 150° Southeast 363 418 15,200 -1,747 Descending FlightAware ADS-B
Thu 02:46:34 PM 34.2680 -118.8490 166° South 344 396 13,300 -1,826 Descending FlightAware ADS-B
Thu 02:47:07 PM 34.2260 -118.8330 163° South 343 395 13,100 -1,099 Descending FlightAware ADS-B
Thu 02:47:45 PM 34.1650 -118.8110 163° South 321 369 12,000 -1,500 Descending FlightAware ADS-B
Thu 02:48:19 PM 34.1140 -118.7920 163° South 316 364 11,300 -1,300 Descending FlightAware ADS-B
Thu 02:48:45 PM 34.0800 -118.7800 164° South 312 359 10,700 -964 Descending FlightAware ADS-B
Thu 02:49:15 PM 34.0450 -118.7470 142° Southeast 303 349 10,400 -571 Descending FlightAware ADS-B
Thu 02:49:27 PM 34.0370 -118.7290 118° Southeast 301 346 10,300 -462 Descending FlightAware ADS-B
Thu 02:49:41 PM 34.0340 -118.7070 99° East 301 346 10,200 -545 Descending FlightAware ADS-B
Thu 02:50:11 PM 34.0290 -118.6580 97° East 289 333 9,900 -571 Descending FlightAware ADS-B
Thu 02:50:23 PM 34.0270 -118.6380 97° East 288 331 9,800 -529 Descending FlightAware ADS-B
Thu 02:50:45 PM 34.0240 -118.6060 96° East 288 331 9,600 -878 Descending FlightAware ADS-B
Thu 02:51:04 PM 34.0210 -118.5740 96° East 285 328 9,200 -1,256 Descending FlightAware ADS-B
Thu 02:51:28 PM 34.0180 -118.5360 95° East 285 328 8,700 -1,227 Descending FlightAware ADS-B
Thu 02:51:48 PM 34.0150 -118.5040 96° East 284 327 8,300 -1,091 Descending FlightAware ADS-B
Thu 02:52:01 PM 34.0130 -118.4840 97° East 281 323 8,100 -1,286 Descending FlightAware ADS-B
Thu 02:52:16 PM 34.0110 -118.4610 96° East 283 326 7,700 -1,171 Descending FlightAware ADS-B
Thu 02:52:42 PM 34.0150 -118.4250 82° East 272 313 7,300 -1,091 Descending FlightAware ADS-B
Thu 02:53:00 PM 34.0190 -118.3950 81° East 256 295 6,900 -1,455 Descending FlightAware ADS-B
Thu 02:53:15 PM 34.0220 -118.3750 80° East 238 274 6,500 -1,200 Descending FlightAware ADS-B
Thu 02:53:35 PM 34.0250 -118.3500 82° East 218 251 6,200 -1,200 Descending FlightAware ADS-B
Thu 02:54:00 PM 34.0290 -118.3220 80° East 205 236 5,600 -1,650 Descending FlightAware ADS-B
Thu 02:54:15 PM 34.0320 -118.3050 78° East 203 234 5,100 -1,800 Descending FlightAware ADS-B
Thu 02:54:30 PM 34.0340 -118.2900 81° East 201 231 4,700 -1,650 Descending FlightAware ADS-B
Thu 02:54:55 PM 34.0370 -118.2620 83° East 199 229 4,000 -1,309 Descending FlightAware ADS-B
Thu 02:55:25 PM 34.0410 -118.2290 82° East 195 224 3,500 -873 Descending FlightAware ADS-B
Thu 02:55:50 PM 34.0440 -118.2060 81° East 195 224 3,200 -933 Descending FlightAware ADS-B
Thu 02:56:10 PM 34.0460 -118.1810 84° East 191 220 2,800 -800 Descending FlightAware ADS-B
Thu 02:56:35 PM 34.0380 -118.1590 114° Southeast 189 217 2,600 -400 Descending FlightAware ADS-B
Thu 02:56:40 PM 34.0350 -118.1570 151° Southeast 188 216 2,600  Level FlightAware ADS-B
Thu 02:56:49 PM 34.0250 -118.1540 166° South 187 215 2,600  Level FlightAware ADS-B
Thu 02:57:04 PM 34.0130 -118.1520 172° South 189 217 2,600  Level FlightAware ADS-B
Thu 02:57:29 PM 33.9930 -118.1620 203° Southwest 188 216 2,600  Level FlightAware ADS-B
Thu 02:57:39 PM 33.9880 -118.1700 233° Southwest 189 217 2,600  Level FlightAware ADS-B
Thu 02:58:05 PM 33.9750 -118.1930 236° Southwest 187 215 2,600  Level FlightAware ADS-B
Thu 02:58:09 PM 33.9740 -118.1960 248° West 189 217 2,600  Level FlightAware ADS-B
Thu 02:58:19 PM 33.9720 -118.2080 259° West 190 219 2,600  Level FlightAware ADS-B
Thu 02:58:42 PM 33.9700 -118.2300 264° West 193 222 2,600 -143 Level FlightAware ADS-B
Thu 02:59:01 PM 33.9670 -118.2520 261° West 193 222 2,500 -545 Descending FlightAware ADS-B
Thu 02:59:15 PM 33.9660 -118.2670 265° West 189 217 2,300 -947 Descending FlightAware ADS-B
Thu 02:59:39 PM 33.9630 -118.2920 262° West 185 213 1,900 -1,000 Descending FlightAware ADS-B
Thu 03:00:03 PM 33.9610 -118.3160 264° West 165 190 1,500 -913 Descending FlightAware ADS-B
Thu 03:00:25 PM 33.9590 -118.3340 262° West 144 166 1,200 -714 Descending FlightAware ADS-B
Thu 03:00:45 PM 33.9570 -118.3490 261° West 141 162 1,000 -714 Descending FlightAware ADS-B
Thu 03:01:07 PM 33.9560 -118.3670 266° West 139 160 700 -682 Descending FlightAware ADS-B
Thu 03:01:29 PM 33.9540 -118.3830 261° West 139 160 500 -305 Descending FlightAware ADS-B
Thu 03:02:06 PM 33.9520 -118.4070 264° West 138 159 400 -162 Descending FlightAware ADS-B

Login

Don't have an account? Register now (free) for customized features, flight alerts, and more!